Terminal Aerodrome Forecast
Issued by NWS

Home | Current Version | Previous Version | Text Only | Print | Product List | Glossary On
Versions: 1 2 3 4 5 6 7 8 9 10 11 12 13 14 15 16 17 18 19 20 21 22 23 24 25 26 27 28 29 30 31
619
FTUS43 KLSX 081640 AAD
TAFUIN
TAF AMD
KUIN 081640Z 0817/0912 30022G32KT 1SM -SHSN BLSN BKN025 OVC040
     FM082200 30022G32KT 3SM -SHSN BLSN OVC025
     FM090100 32018G28KT P6SM OVC025=

USA.gov is the U.S. government's official web portal to all federal, state and local government web resources and services.